Historyczne dane pomiarowe

Dodano dane terminowe – wersja testowa.

Dane z okresu 1951-2019

Wersja bazy: 1.34 [2019-03-16, lista zmian], aktualizacja planowana na 2019-04-15

Dane meteo z obszaru Polski uzyskane na podstawie danych udostępnionych przez Instytut Meteorologii i Gospodarki Wodnej – Państwowy Instytut Badawczy.

 

Wybierz Datę:    

       

TemperaturaWilgotnośćWiatrCiśnienieOpadyŚniegCzas trwania zjawisk
 Stacja t tx tn tng RH VA  wxwx mslp ppp RRR   cm mm wxwxwxwxwxwxwx
1956-09-11 6.0 11.1 4.6- 93.3- 7.7 9.3---- 5.5------------
1956-09-12 0.8 4.8 -2.2- 95.8- 8.0 11.3---- 9.0------------
1956-09-13 -3.3 -2.1 -4.0- 95.3- 8.0 6.0---- 7.5-- 2---------
1956-09-14 -2.2 -1.6 -3.3- 96.3- 8.0 9.3---- 3.4-- 3---------
1956-09-15 0.6 2.2 -2.5- 96.0- 3.7 3.7---- 0.0-- 3---------
1956-09-16 4.3 7.6 0.3- 73.3- 3.7 6.3---- 0.0-- 2---------
1956-09-17 -1.7 4.1 -2.2- 98.3- 7.0 7.0---- 8.3------------
1956-09-18 -4.1 -2.0 -5.5- 94.0- 7.3 6.0---- 2.5-- 5---------
1956-09-19 -1.0 1.4 -5.4- 77.0- 1.3 2.3---- 0.0-- 10---------
1956-09-20 2.1 4.3 -0.2- 53.5- 5.0 5.7---- 0.0-- 6---------
1956-09-21 5.1 8.1 1.0- 63.0- 0.7 1.3---- 0.0------------
1956-09-22 6.4 9.8 4.2- 69.0- 0.7 0.0---- 0.0------------
1956-09-23 6.4 9.6 5.1- 73.0- 0.3 0.3---- 0.0------------
1956-09-24 7.4 10.4 4.2- 55.5- 0.0 1.7---- 0.0------------
1956-09-25 6.1 8.0 3.2- 39.8- 0.7 8.7---- 0.0------------
1956-09-26 6.1 9.6 2.8- 46.8- 0.0 11.3---- 0.0------------
1956-09-27 5.6 8.6 3.8- 91.8- 6.7 10.7---- 0.3------------
1956-09-28 3.7 5.7 2.7- 91.5- 5.0 2.7---- 0.6------------
1956-09-29 7.9 11.4 2.5- 87.3- 5.3 4.7---- 0.0------------
1956-09-30 7.1 10.4 5.2- 94.3- 3.7 2.0---- 0.0------------
1956-10-01 9.7 12.4 5.9- 55.3- 3.3 6.0---- 0.0------------
1956-10-02 8.4 11.6 6.7- 72.3- 1.3 10.0---- 0.0------------
1956-10-03 7.5 11.7 5.6- 82.0- 7.3 5.3---- 9.6------------
1956-10-04 2.0 6.5 -0.1-100.0- 7.7 7.0---- 11.2------------
1956-10-05 -0.5 2.4 -2.1- 90.0- 6.7 3.7---- 12.9------------
1956-10-06 -4.3 0.0 -7.0- 95.8- 8.0 5.7---- 26.4-- 8---------
1956-10-07 -6.8 -6.0 -7.9- 89.8- 5.0 6.3---- 0.5-- 35---------
1956-10-08 -6.0 -3.2 -7.3- 88.5- 4.0 1.3---- 0.0-- 32---------
1956-10-09 -5.0 -3.4 -8.0- 87.5- 4.0 5.7---- 6.2-- 27---------
1956-10-10 -7.5 -3.3 -9.8- 90.8- 5.0 7.0---- 1.8-- 29---------
116.8 ms

 

Źródłem pochodzenia danych jest Instytut Meteorologii i Gospodarki Wodnej – Państwowy Instytut Badawczy. Dane Instytutu Meteorologii i Gospodarki Wodnej – Państwowego Instytutu Badawczego zostały przetworzone.

Dane źródłowe można odnaleźć na stronie https://dane.imgw.pl